createdAt,value
2018-06-19T00:01:54.651Z,4.65
2018-06-19T00:04:24.554Z,4.72
2018-06-19T00:06:54.524Z,6.72
2018-06-19T00:09:27.347Z,6.47
2018-06-19T00:11:56.522Z,4.40
2018-06-19T00:14:25.841Z,5.03
2018-06-19T00:16:55.980Z,5.60
2018-06-19T00:19:29.582Z,6.20
2018-06-19T00:22:00.738Z,5.50
2018-06-19T00:24:29.958Z,4.90
2018-06-19T00:26:59.202Z,4.62
2018-06-19T00:29:28.483Z,4.80
2018-06-19T00:31:57.731Z,4.37
2018-06-19T00:34:26.952Z,5.60
2018-06-19T00:36:56.174Z,4.87
2018-06-19T00:39:25.389Z,6.30
2018-06-19T00:41:54.954Z,6.93
2018-06-19T00:44:24.888Z,14.03
2018-06-19T00:46:55.591Z,6.60
2018-06-19T00:49:26.152Z,7.30
2018-06-19T00:51:59.090Z,4.17
2018-06-19T00:54:28.243Z,7.53
2018-06-19T00:56:58.684Z,6.77
2018-06-19T00:59:28.297Z,4.90
2018-06-19T01:01:59.131Z,4.47
2018-06-19T01:04:28.409Z,5.77
2018-06-19T01:06:57.601Z,6.47
2018-06-19T01:09:26.745Z,4.90
2018-06-19T01:11:55.900Z,9.70
2018-06-19T01:14:25.339Z,7.07
2018-06-19T01:16:55.341Z,5.30
2018-06-19T01:19:25.360Z,6.65
2018-06-19T01:21:55.269Z,5.60
2018-06-19T01:24:25.333Z,6.67
2018-06-19T01:26:55.454Z,8.73
2018-06-19T01:29:25.442Z,8.53
2018-06-19T01:31:55.440Z,5.30
2018-06-19T01:34:25.408Z,11.40
2018-06-19T01:36:55.394Z,6.33
2018-06-19T01:39:25.492Z,4.40
2018-06-19T01:41:55.518Z,4.08
2018-06-19T01:44:25.484Z,4.97
2018-06-19T01:46:55.478Z,5.37
2018-06-19T01:49:25.596Z,8.10
2018-06-19T01:51:55.668Z,5.87
2018-06-19T01:54:25.689Z,6.95
2018-06-19T01:56:55.556Z,7.65
2018-06-19T01:59:27.307Z,4.65
2018-06-19T02:01:56.626Z,7.80
2018-06-19T02:04:25.837Z,8.27
2018-06-19T02:06:55.719Z,7.00
2018-06-19T02:09:25.872Z,10.93
2018-06-19T02:11:55.903Z,10.53
2018-06-19T02:14:25.963Z,9.90
2018-06-19T02:16:55.925Z,7.55
2018-06-19T02:19:25.907Z,8.20
2018-06-19T02:21:55.958Z,10.30
2018-06-19T02:24:26.144Z,9.10
2018-06-19T02:26:55.990Z,7.13
2018-06-19T02:29:26.060Z,5.33
2018-06-19T02:31:56.016Z,14.03
2018-06-19T02:34:27.955Z,10.48
2018-06-19T02:36:57.115Z,15.18
2018-06-19T02:39:26.250Z,12.47
2018-06-19T02:41:56.238Z,13.17
2018-06-19T02:44:26.174Z,8.87
2018-06-19T02:46:56.245Z,6.73
2018-06-19T02:49:26.289Z,6.70
2018-06-19T02:51:58.244Z,11.55
2018-06-19T02:54:27.408Z,9.93
2018-06-19T02:56:57.540Z,6.53
2018-06-19T02:59:26.696Z,11.40
2018-06-19T03:01:56.372Z,8.90
2018-06-19T03:04:26.498Z,9.75
2018-06-19T03:06:57.012Z,10.27
2018-06-19T03:09:26.506Z,5.63
2018-06-19T03:11:55.616Z,6.03
2018-06-19T03:14:24.736Z,7.43
2018-06-19T03:16:53.930Z,7.20
2018-06-19T03:19:23.029Z,8.20
2018-06-19T03:21:52.179Z,5.60
2018-06-19T03:24:21.272Z,6.23
2018-06-19T03:26:50.354Z,8.83
2018-06-19T03:29:20.976Z,11.50
2018-06-19T03:31:50.096Z,8.30
2018-06-19T03:34:19.188Z,9.63
2018-06-19T03:36:48.276Z,9.60
2018-06-19T03:39:17.406Z,9.13
2018-06-19T03:41:46.510Z,9.23
2018-06-19T03:44:15.726Z,7.72
2018-06-19T03:46:45.027Z,6.70
2018-06-19T03:49:14.198Z,8.20
2018-06-19T03:51:43.338Z,7.27
2018-06-19T03:54:19.163Z,6.20
2018-06-19T03:56:48.312Z,12.20
2018-06-19T03:59:17.542Z,7.50
2018-06-19T04:01:47.466Z,8.70
2018-06-19T04:04:16.623Z,6.30
2018-06-19T04:06:45.749Z,6.93
2018-06-19T04:09:14.937Z,10.90
2018-06-19T04:11:44.159Z,8.57
2018-06-19T04:14:13.375Z,6.73
2018-06-19T04:16:42.525Z,7.00
2018-06-19T04:19:15.221Z,6.67
2018-06-19T04:21:44.359Z,6.37
2018-06-19T04:24:13.534Z,5.97
2018-06-19T04:26:42.732Z,14.07
2018-06-19T04:29:11.825Z,12.03
2018-06-19T04:31:40.922Z,6.70
2018-06-19T04:34:10.097Z,6.77
2018-06-19T04:36:39.217Z,11.35
2018-06-19T04:39:11.399Z,9.10
2018-06-19T04:41:41.768Z,10.40
2018-06-19T04:44:10.881Z,5.37
2018-06-19T04:46:41.039Z,9.30
2018-06-19T04:49:10.182Z,6.53
2018-06-19T04:51:39.388Z,12.13
2018-06-19T04:54:08.581Z,6.67
2018-06-19T04:56:37.652Z,10.37
2018-06-19T04:59:06.805Z,10.32
2018-06-19T05:01:36.001Z,8.40
2018-06-19T05:04:05.301Z,7.67
2018-06-19T05:06:34.594Z,7.50
2018-06-19T05:09:04.013Z,7.70
2018-06-19T05:11:33.139Z,6.30
2018-06-19T05:14:02.331Z,8.70
2018-06-19T05:16:31.593Z,5.87
2018-06-19T05:19:00.986Z,10.40
2018-06-19T05:21:30.185Z,8.53
2018-06-19T05:23:59.501Z,10.83
2018-06-19T05:26:29.095Z,13.57
2018-06-19T05:28:59.377Z,9.23
2018-06-19T05:31:29.407Z,7.87
2018-06-19T05:33:59.350Z,9.20
2018-06-19T05:36:29.229Z,7.25
2018-06-19T05:38:59.108Z,9.38
2018-06-19T05:41:29.281Z,6.60
2018-06-19T05:43:59.182Z,10.10
2018-06-19T05:46:29.379Z,14.45
2018-06-19T05:48:59.436Z,6.85
2018-06-19T05:51:29.475Z,13.80
2018-06-19T05:53:59.543Z,8.57
2018-06-19T05:56:29.393Z,10.47
2018-06-19T05:58:59.342Z,8.13
2018-06-19T06:01:29.489Z,10.03
2018-06-19T06:03:59.411Z,8.05
2018-06-19T06:06:29.435Z,7.10
2018-06-19T06:08:59.813Z,6.87
2018-06-19T06:11:29.605Z,9.73
2018-06-19T06:13:59.521Z,7.53
2018-06-19T06:16:29.566Z,7.13
2018-06-19T06:18:59.608Z,7.60
2018-06-19T06:21:29.829Z,8.23
2018-06-19T06:23:59.593Z,13.03
2018-06-19T06:26:29.716Z,6.55
2018-06-19T06:28:59.694Z,13.18
2018-06-19T06:31:29.694Z,15.10
2018-06-19T06:33:59.698Z,8.50
2018-06-19T06:36:29.894Z,8.23
2018-06-19T06:38:59.888Z,7.42
2018-06-19T06:41:29.909Z,8.35
2018-06-19T06:43:59.875Z,12.27
2018-06-19T06:46:29.858Z,6.47
2018-06-19T06:49:00.082Z,6.37
2018-06-19T06:51:29.970Z,9.97
2018-06-19T06:53:59.976Z,6.97
2018-06-19T06:56:29.920Z,7.47
2018-06-19T06:58:59.934Z,9.70
2018-06-19T07:01:30.013Z,6.80
2018-06-19T07:04:00.084Z,6.45
2018-06-19T07:06:30.300Z,7.53
2018-06-19T07:09:00.065Z,7.30
2018-06-19T07:11:30.188Z,6.65
2018-06-19T07:14:00.261Z,12.65
2018-06-19T07:16:30.092Z,19.43
2018-06-19T07:19:00.252Z,8.30
2018-06-19T07:21:30.200Z,5.90
2018-06-19T07:24:10.657Z,13.20
2018-06-19T07:37:36.853Z,8.90
2018-06-19T07:40:06.046Z,5.30
2018-06-19T07:42:35.419Z,8.23
2018-06-19T07:45:05.000Z,4.30
2018-06-19T07:47:35.160Z,5.03
2018-06-19T07:50:04.740Z,3.10
2018-06-19T07:52:34.095Z,5.10
2018-06-19T07:55:03.298Z,3.43
2018-06-19T07:57:32.467Z,6.00
2018-06-19T08:00:01.627Z,2.70
2018-06-19T08:02:30.797Z,4.37
2018-06-19T08:04:59.913Z,3.03
2018-06-19T08:07:28.996Z,2.80
2018-06-19T08:09:58.104Z,2.10
2018-06-19T08:12:27.193Z,4.90
2018-06-19T08:14:56.452Z,5.03
2018-06-19T08:17:25.644Z,8.40
2018-06-19T08:19:54.852Z,3.20
2018-06-19T08:22:24.025Z,3.40
2018-06-19T08:24:53.237Z,2.93
2018-06-19T08:27:22.612Z,6.60
2018-06-19T08:29:52.072Z,4.97
2018-06-19T08:32:21.729Z,4.50
2018-06-19T08:34:50.920Z,8.50
2018-06-19T08:37:20.152Z,3.87
2018-06-19T08:39:49.317Z,5.80
2018-06-19T08:42:18.512Z,2.30
2018-06-19T08:44:47.710Z,4.20
2018-06-19T08:47:17.047Z,6.33
2018-06-19T08:49:46.211Z,4.93
2018-06-19T08:52:15.440Z,5.40
2018-06-19T08:54:44.836Z,2.50
2018-06-19T08:57:14.220Z,5.73
2018-06-19T08:59:43.484Z,2.50
2018-06-19T09:02:12.850Z,3.67
2018-06-19T09:04:41.987Z,2.37
2018-06-19T09:07:11.236Z,4.40
2018-06-19T09:09:40.443Z,2.73
2018-06-19T09:12:09.670Z,4.43
2018-06-19T09:14:39.043Z,4.40
2018-06-19T09:17:08.158Z,3.23
2018-06-19T09:19:37.480Z,5.00
2018-06-19T09:22:06.919Z,4.90
2018-06-19T09:24:36.335Z,3.07
2018-06-19T09:27:05.876Z,7.93
2018-06-19T09:29:35.109Z,5.40
2018-06-19T09:32:04.283Z,5.57
2018-06-19T09:34:33.815Z,2.83
2018-06-19T09:37:03.051Z,3.83
2018-06-19T09:39:32.290Z,5.30
2018-06-19T09:42:01.487Z,4.63
2018-06-19T09:44:30.716Z,2.30
2018-06-19T09:47:00.065Z,2.40
2018-06-19T09:49:29.747Z,2.10
2018-06-19T09:51:59.166Z,2.60
2018-06-19T09:54:35.258Z,4.60
2018-06-19T09:57:04.608Z,2.10
2018-06-19T09:59:33.836Z,4.10
2018-06-19T10:02:03.028Z,3.47
2018-06-19T10:04:32.194Z,6.80
2018-06-19T10:07:01.416Z,2.13
2018-06-19T10:09:30.561Z,3.80
2018-06-19T10:11:59.820Z,5.10
2018-06-19T10:14:28.908Z,2.93
2018-06-19T10:16:58.100Z,3.43
2018-06-19T10:19:27.300Z,2.33
2018-06-19T10:21:56.363Z,6.47
2018-06-19T10:24:25.523Z,2.23
2018-06-19T10:26:54.867Z,8.30
2018-06-19T10:29:24.445Z,2.57
2018-06-19T10:31:53.572Z,2.73
2018-06-19T10:34:22.795Z,3.60
2018-06-19T10:36:51.958Z,4.70
2018-06-19T10:39:21.190Z,3.03
2018-06-19T10:41:50.395Z,3.43
2018-06-19T10:44:19.505Z,2.70
2018-06-19T10:46:48.708Z,4.10
2018-06-19T10:49:17.833Z,3.37
2018-06-19T10:51:46.955Z,3.00
2018-06-19T10:54:16.079Z,4.70
2018-06-19T10:56:45.250Z,2.67
2018-06-19T10:59:14.354Z,4.90
2018-06-19T11:01:43.588Z,3.73
2018-06-19T11:04:12.673Z,4.63
2018-06-19T11:06:41.872Z,5.50
2018-06-19T11:09:12.393Z,3.70
2018-06-19T11:11:42.083Z,3.23
2018-06-19T11:14:11.286Z,2.60
2018-06-19T11:16:40.359Z,4.40
2018-06-19T11:19:12.442Z,3.07
2018-06-19T11:21:41.566Z,5.40
2018-06-19T11:24:10.801Z,2.60
2018-06-19T11:26:39.982Z,3.33
2018-06-19T11:29:09.384Z,4.67
2018-06-19T11:31:38.489Z,4.40
2018-06-19T11:34:07.765Z,5.53
2018-06-19T11:36:37.030Z,6.13
2018-06-19T11:39:09.565Z,3.20
2018-06-19T11:41:38.794Z,3.97
2018-06-19T11:44:08.073Z,7.90
2018-06-19T11:46:37.219Z,9.77
2018-06-19T11:49:06.559Z,6.10
2018-06-19T11:51:36.118Z,10.70
2018-06-19T11:54:05.310Z,5.40
2018-06-19T11:56:34.402Z,3.67
2018-06-19T11:59:03.549Z,2.43
2018-06-19T12:01:32.803Z,2.93
2018-06-19T12:04:01.934Z,6.73
2018-06-19T12:06:31.165Z,5.13
2018-06-19T12:09:00.362Z,4.90
2018-06-19T12:11:29.547Z,2.60
2018-06-19T12:13:58.760Z,3.37
2018-06-19T12:16:28.100Z,3.20
2018-06-19T12:18:57.398Z,4.50
2018-06-19T12:21:26.521Z,4.43
2018-06-19T12:23:55.762Z,2.80
2018-06-19T12:26:25.043Z,6.20
2018-06-19T12:28:54.329Z,3.13
2018-06-19T12:31:23.607Z,4.10
2018-06-19T12:33:52.825Z,2.10
2018-06-19T12:36:22.066Z,3.00
2018-06-19T12:38:51.259Z,2.93
2018-06-19T12:41:20.456Z,3.43
2018-06-19T12:43:49.691Z,2.03
2018-06-19T12:46:19.008Z,3.53
2018-06-19T12:48:48.176Z,2.70
2018-06-19T12:51:37.623Z,2.20
2018-06-19T12:54:15.516Z,2.43
2018-06-19T12:56:44.998Z,5.20
2018-06-19T12:59:14.253Z,4.50
2018-06-19T13:01:43.406Z,2.73
2018-06-19T13:05:22.466Z,4.43
2018-06-19T13:07:51.805Z,2.10
2018-06-19T13:10:21.099Z,2.20
2018-06-19T13:13:31.261Z,3.20
2018-06-19T13:16:00.408Z,2.37
2018-06-19T13:18:41.933Z,2.40
2018-06-19T13:21:11.076Z,3.37
2018-06-19T13:23:40.496Z,1.70
2018-06-19T13:26:09.691Z,1.80
2018-06-19T13:29:54.153Z,1.87
2018-06-19T13:32:23.590Z,4.17
2018-06-19T13:34:52.809Z,2.23
2018-06-19T13:37:21.964Z,2.07
2018-06-19T13:41:20.158Z,1.90
2018-06-19T13:44:02.028Z,2.17
2018-06-19T13:46:31.206Z,3.00
2018-06-19T13:49:00.370Z,2.10
2018-06-19T13:51:29.659Z,2.10
2018-06-19T13:53:58.976Z,2.13
2018-06-19T13:57:42.521Z,5.00
2018-06-19T14:00:14.783Z,1.90
2018-06-19T14:02:44.020Z,2.30
2018-06-19T14:05:14.135Z,2.20
2018-06-19T14:08:48.540Z,1.90
2018-06-19T14:11:28.969Z,2.80
2018-06-19T14:13:58.227Z,4.43
2018-06-19T14:16:27.280Z,2.00
2018-06-19T14:18:56.478Z,2.80
2018-06-19T14:21:25.597Z,3.10
2018-06-19T14:23:54.891Z,1.80
2018-06-19T14:26:24.133Z,2.93
2018-06-19T14:28:53.482Z,2.50
2018-06-19T14:31:22.828Z,4.57
2018-06-19T14:33:52.036Z,2.60
2018-06-19T14:36:21.177Z,2.00
2018-06-19T14:38:50.435Z,2.03
2018-06-19T14:41:19.656Z,2.50
2018-06-19T14:43:48.851Z,5.23
2018-06-19T14:46:17.993Z,6.03
2018-06-19T14:48:47.136Z,3.30
2018-06-19T14:51:16.318Z,1.83
2018-06-19T14:53:45.543Z,2.27
2018-06-19T14:56:15.139Z,5.93
2018-06-19T14:58:44.383Z,2.30
2018-06-19T15:01:13.578Z,1.70
2018-06-19T15:03:42.713Z,6.10
2018-06-19T15:06:11.965Z,3.40
2018-06-19T15:08:41.166Z,3.27
2018-06-19T15:11:10.345Z,3.47
2018-06-19T15:13:39.529Z,3.00
2018-06-19T15:16:08.861Z,1.63
2018-06-19T15:18:38.010Z,4.00
2018-06-19T15:21:07.251Z,3.03
2018-06-19T15:23:36.682Z,2.60
2018-06-19T15:26:06.005Z,2.20
2018-06-19T15:28:35.192Z,5.20
2018-06-19T15:31:04.375Z,1.67
2018-06-19T15:33:33.489Z,2.13
2018-06-19T15:36:02.947Z,2.43
2018-06-19T15:38:32.128Z,2.47
2018-06-19T15:41:01.280Z,2.63
2018-06-19T15:43:30.520Z,1.60
2018-06-19T15:45:59.682Z,1.93
2018-06-19T15:48:28.943Z,1.70
2018-06-19T15:50:58.407Z,2.23
2018-06-19T15:53:27.521Z,2.00
2018-06-19T15:55:56.680Z,4.13
2018-06-19T15:58:25.809Z,5.37
2018-06-19T16:00:54.916Z,3.73
2018-06-19T16:03:24.058Z,6.40
2018-06-19T16:05:53.308Z,4.83
2018-06-19T16:08:22.490Z,1.77
2018-06-19T16:10:51.645Z,5.70
2018-06-19T16:13:20.927Z,3.13
2018-06-19T16:15:50.229Z,3.43
2018-06-19T16:18:19.640Z,2.20
2018-06-19T16:20:48.813Z,1.60
2018-06-19T16:23:17.906Z,6.83
2018-06-19T16:25:47.068Z,1.67
2018-06-19T16:28:16.220Z,2.07
2018-06-19T16:30:45.550Z,2.90
2018-06-19T16:33:14.793Z,2.50
2018-06-19T16:35:43.997Z,1.60
2018-06-19T16:38:13.202Z,2.53
2018-06-19T16:40:42.361Z,1.73
2018-06-19T16:43:11.486Z,1.87
2018-06-19T16:45:40.622Z,4.23
2018-06-19T16:48:10.004Z,1.57
2018-06-19T16:50:39.195Z,1.50
2018-06-19T16:53:08.334Z,1.87
2018-06-19T16:55:37.521Z,2.00
2018-06-19T16:58:06.656Z,1.70
2018-06-19T17:00:35.860Z,5.60
2018-06-19T17:03:05.185Z,8.40
2018-06-19T17:05:34.362Z,3.07
2018-06-19T17:08:03.678Z,3.90
2018-06-19T17:10:32.967Z,2.83
2018-06-19T17:13:02.171Z,2.60
2018-06-19T17:15:31.318Z,3.93
2018-06-19T17:18:00.684Z,7.17
2018-06-19T17:20:29.912Z,2.33
2018-06-19T17:22:59.032Z,2.30
2018-06-19T17:25:28.346Z,3.60
2018-06-19T17:27:57.792Z,3.20
2018-06-19T17:30:27.200Z,2.93
2018-06-19T17:32:56.551Z,1.60
2018-06-19T17:35:25.868Z,1.90
2018-06-19T17:37:55.125Z,2.00
2018-06-19T17:40:25.025Z,2.03
2018-06-19T17:42:54.254Z,1.73
2018-06-19T17:45:23.493Z,1.50
2018-06-19T17:47:52.797Z,2.03
2018-06-19T17:50:22.190Z,1.80
2018-06-19T17:52:51.572Z,4.13
2018-06-19T17:55:21.196Z,2.17
2018-06-19T17:57:50.499Z,2.13
2018-06-19T18:00:19.749Z,3.07
2018-06-19T18:02:48.928Z,2.40
2018-06-19T18:05:18.238Z,2.57
2018-06-19T18:07:47.581Z,4.40
2018-06-19T18:10:17.112Z,2.90
2018-06-19T18:12:46.457Z,1.90
2018-06-19T18:15:15.707Z,2.20
2018-06-19T18:17:44.993Z,4.20
2018-06-19T18:20:14.175Z,1.70
2018-06-19T18:22:43.862Z,2.37
2018-06-19T18:25:13.224Z,2.93
2018-06-19T18:27:42.364Z,2.20
2018-06-19T18:30:11.603Z,2.27
2018-06-19T18:32:40.723Z,5.60
2018-06-19T18:35:10.018Z,3.13
2018-06-19T18:37:39.362Z,2.52
2018-06-19T18:40:08.641Z,2.13
2018-06-19T18:42:37.956Z,2.00
2018-06-19T18:45:07.432Z,2.23
2018-06-19T18:47:36.798Z,1.93
2018-06-19T18:50:06.585Z,2.03
2018-06-19T18:52:35.991Z,3.60
2018-06-19T18:55:05.350Z,4.60
2018-06-19T18:57:34.637Z,2.93
2018-06-19T19:00:03.936Z,2.10
2018-06-19T19:02:33.150Z,2.00
2018-06-19T19:05:02.464Z,2.37
2018-06-19T19:07:31.782Z,2.00
2018-06-19T19:10:06.325Z,2.37
2018-06-19T19:12:35.771Z,2.30
2018-06-19T19:15:10.363Z,2.30
2018-06-19T19:17:44.927Z,2.13
2018-06-19T19:20:14.371Z,1.90
2018-06-19T19:22:44.132Z,3.67
2018-06-19T19:25:13.406Z,2.40
2018-06-19T19:27:54.542Z,5.63
2018-06-19T19:30:23.716Z,3.47
2018-06-19T19:32:53.035Z,3.37
2018-06-19T19:35:22.332Z,2.30
2018-06-19T19:37:56.812Z,4.33
2018-06-19T19:40:26.020Z,2.37
2018-06-19T19:42:55.256Z,3.70
2018-06-19T19:45:24.817Z,4.20
2018-06-19T19:47:59.189Z,2.70
2018-06-19T19:50:28.389Z,3.30
2018-06-19T19:52:57.699Z,2.50
2018-06-19T19:55:26.888Z,2.00
2018-06-19T19:58:01.396Z,4.73
2018-06-19T20:00:30.800Z,3.53
2018-06-19T20:03:00.455Z,5.23
2018-06-19T20:05:29.914Z,3.80
2018-06-19T20:07:59.166Z,3.50
2018-06-19T20:10:28.416Z,7.10
2018-06-19T20:12:57.555Z,3.83
2018-06-19T20:15:26.860Z,5.30
2018-06-19T20:17:56.055Z,3.73
2018-06-19T20:20:25.233Z,4.33
2018-06-19T20:22:54.606Z,3.00
2018-06-19T20:25:23.883Z,7.00
2018-06-19T20:27:53.101Z,3.37
2018-06-19T20:30:22.394Z,3.20
2018-06-19T20:32:51.654Z,7.60
2018-06-19T20:35:20.924Z,3.87
2018-06-19T20:37:50.369Z,3.10
2018-06-19T20:40:19.596Z,4.70
2018-06-19T20:42:48.882Z,2.80
2018-06-19T20:45:18.162Z,4.40
2018-06-19T20:47:47.326Z,7.80
2018-06-19T20:50:16.416Z,2.90
2018-06-19T20:52:45.750Z,5.67
2018-06-19T20:55:15.170Z,3.53
2018-06-19T20:57:44.442Z,4.33
2018-06-19T21:00:13.645Z,3.00
2018-06-19T21:02:42.930Z,3.20
2018-06-19T21:05:12.170Z,8.13
2018-06-19T21:07:41.355Z,3.50
2018-06-19T21:10:10.691Z,3.07
2018-06-19T21:12:39.913Z,2.90
2018-06-19T21:15:09.149Z,2.83
2018-06-19T21:17:38.357Z,2.93
2018-06-19T21:20:07.545Z,3.57
2018-06-19T21:22:36.750Z,3.23
2018-06-19T21:25:06.278Z,3.13
2018-06-19T21:27:35.755Z,3.30
2018-06-19T21:30:05.521Z,3.93
2018-06-19T21:32:34.674Z,2.77
2018-06-19T21:35:04.043Z,3.70
2018-06-19T21:37:33.255Z,3.10
2018-06-19T21:40:02.402Z,2.87
2018-06-19T21:42:31.511Z,4.40
2018-06-19T21:45:00.745Z,3.00
2018-06-19T21:47:29.855Z,3.50
2018-06-19T21:49:59.032Z,2.77
2018-06-19T21:52:28.155Z,2.73
2018-06-19T21:54:57.494Z,2.87
2018-06-19T21:57:26.667Z,5.07
2018-06-19T21:59:55.857Z,2.83
2018-06-19T22:02:30.310Z,3.73
2018-06-19T22:04:59.904Z,4.33
2018-06-19T22:07:29.012Z,3.43
2018-06-19T22:09:58.243Z,4.60
2018-06-19T22:12:27.408Z,4.93
2018-06-19T22:14:56.571Z,4.57
2018-06-19T22:17:25.847Z,5.47
2018-06-19T22:19:54.968Z,7.00
2018-06-19T22:22:24.289Z,4.43
2018-06-19T22:24:56.650Z,3.23
2018-06-19T22:27:25.786Z,3.90
2018-06-19T22:29:54.949Z,4.07
2018-06-19T22:32:24.213Z,3.67
2018-06-19T22:34:53.400Z,3.53
2018-06-19T22:37:22.529Z,3.83
2018-06-19T22:39:51.712Z,2.57
2018-06-19T22:42:21.041Z,4.23
2018-06-19T22:44:50.441Z,4.53
2018-06-19T22:47:19.757Z,3.47
2018-06-19T22:49:48.955Z,4.43
2018-06-19T22:52:18.145Z,12.27
2018-06-19T22:54:47.334Z,3.53
2018-06-19T22:57:16.447Z,4.00
2018-06-19T22:59:45.671Z,3.50
2018-06-19T23:02:14.798Z,3.30
2018-06-19T23:04:44.065Z,3.77
2018-06-19T23:07:13.492Z,3.60
2018-06-19T23:09:42.596Z,4.53
2018-06-19T23:12:11.682Z,3.70
2018-06-19T23:14:40.861Z,3.97
2018-06-19T23:17:09.955Z,3.57
2018-06-19T23:19:39.143Z,10.07
2018-06-19T23:22:08.289Z,2.97
2018-06-19T23:24:37.615Z,3.43
2018-06-19T23:27:07.075Z,5.53
2018-06-19T23:29:36.377Z,3.77
2018-06-19T23:32:05.559Z,3.23
2018-06-19T23:34:34.879Z,5.07
2018-06-19T23:37:04.073Z,3.90
2018-06-19T23:39:33.197Z,3.57
2018-06-19T23:42:02.304Z,2.93
2018-06-19T23:44:31.628Z,5.57
2018-06-19T23:47:00.854Z,3.77
2018-06-19T23:49:30.268Z,4.23
2018-06-19T23:51:59.405Z,4.80
2018-06-19T23:54:28.589Z,3.00
2018-06-19T23:56:57.730Z,5.67
2018-06-19T23:59:26.882Z,4.53
